createdAt,value
2023-04-15T00:01:00.811Z,4.97
2023-04-15T00:03:28.901Z,5.10
2023-04-15T00:05:55.832Z,5.20
2023-04-15T00:08:22.586Z,5.40
2023-04-15T00:10:49.624Z,5.40
2023-04-15T00:13:16.757Z,5.00
2023-04-15T00:15:43.621Z,5.60
2023-04-15T00:18:10.524Z,5.20
2023-04-15T00:20:37.799Z,4.93
2023-04-15T00:23:04.650Z,5.60
2023-04-15T00:25:31.841Z,5.83
2023-04-15T00:27:58.574Z,5.60
2023-04-15T00:30:25.898Z,5.33
2023-04-15T00:32:53.887Z,6.10
2023-04-15T00:35:21.027Z,5.50
2023-04-15T00:37:47.829Z,5.97
2023-04-15T00:40:17.987Z,5.43
2023-04-15T00:42:45.854Z,5.53
2023-04-15T00:45:13.464Z,5.63
2023-04-15T00:47:42.448Z,5.47
2023-04-15T00:50:09.832Z,5.80
2023-04-15T00:52:36.631Z,5.57
2023-04-15T00:55:05.108Z,5.30
2023-04-15T00:57:32.082Z,5.30
2023-04-15T00:59:58.868Z,5.97
2023-04-15T01:02:25.875Z,5.70
2023-04-15T01:04:52.688Z,6.07
2023-04-15T01:07:19.662Z,5.53
2023-04-15T01:09:46.579Z,5.43
2023-04-15T01:12:15.624Z,5.23
2023-04-15T01:14:42.580Z,5.30
2023-04-15T01:17:09.455Z,5.90
2023-04-15T01:19:40.005Z,6.17
2023-04-15T01:22:06.738Z,6.03
2023-04-15T01:24:34.402Z,5.97
2023-04-15T01:27:01.487Z,6.47
2023-04-15T01:29:28.288Z,6.00
2023-04-15T01:31:56.221Z,5.60
2023-04-15T01:34:23.271Z,5.77
2023-04-15T01:36:49.961Z,6.20
2023-04-15T01:39:16.697Z,6.10
2023-04-15T01:41:43.353Z,6.20
2023-04-15T01:44:10.280Z,6.23
2023-04-15T01:46:37.239Z,5.70
2023-04-15T01:49:04.036Z,6.13
2023-04-15T01:51:30.730Z,6.33
2023-04-15T01:53:57.447Z,6.10
2023-04-15T01:56:24.733Z,6.40
2023-04-15T01:58:52.033Z,6.20
2023-04-15T02:01:20.118Z,6.33
2023-04-15T02:03:48.134Z,6.50
2023-04-15T02:06:15.220Z,6.10
2023-04-15T02:08:41.908Z,6.33
2023-04-15T02:11:08.693Z,6.33
2023-04-15T02:13:35.448Z,6.53
2023-04-15T02:16:03.719Z,6.83
2023-04-15T02:18:30.749Z,6.93
2023-04-15T02:20:58.963Z,6.80
2023-04-15T02:23:26.009Z,6.87
2023-04-15T02:25:53.465Z,6.40
2023-04-15T02:28:21.990Z,7.37
2023-04-15T02:30:53.107Z,7.23
2023-04-15T02:33:20.382Z,7.30
2023-04-15T02:35:47.539Z,7.40
2023-04-15T02:38:16.934Z,6.80
2023-04-15T02:40:43.715Z,6.80
2023-04-15T02:43:10.865Z,6.93
2023-04-15T02:45:37.587Z,6.73
2023-04-15T02:48:06.701Z,6.87
2023-04-15T02:50:33.555Z,6.80
2023-04-15T02:53:01.759Z,6.83
2023-04-15T02:55:29.097Z,7.00
2023-04-15T02:57:56.053Z,7.00
2023-04-15T03:00:25.514Z,7.00
2023-04-15T03:02:56.857Z,6.90
2023-04-15T03:05:25.596Z,6.90
2023-04-15T03:07:52.515Z,7.00
2023-04-15T03:10:19.331Z,7.60
2023-04-15T03:12:46.324Z,8.00
2023-04-15T03:15:13.076Z,7.50
2023-04-15T03:17:39.822Z,7.27
2023-04-15T03:20:07.390Z,6.63
2023-04-15T03:22:34.320Z,6.63
2023-04-15T03:25:01.154Z,6.90
2023-04-15T03:27:27.830Z,6.57
2023-04-15T03:29:54.507Z,7.10
2023-04-15T03:32:21.218Z,7.00
2023-04-15T03:34:47.965Z,7.43
2023-04-15T03:37:14.660Z,7.20
2023-04-15T03:39:41.952Z,7.07
2023-04-15T03:42:08.683Z,7.30
2023-04-15T03:44:35.415Z,6.97
2023-04-15T03:47:02.116Z,6.67
2023-04-15T03:49:28.925Z,7.47
2023-04-15T03:51:56.015Z,6.70
2023-04-15T03:54:22.960Z,6.87
2023-04-15T03:56:49.677Z,6.70
2023-04-15T03:59:16.724Z,6.60
2023-04-15T04:01:43.660Z,7.23
2023-04-15T04:04:11.068Z,6.90
2023-04-15T04:06:37.965Z,7.00
2023-04-15T04:09:04.672Z,6.87
2023-04-15T04:11:31.932Z,6.90
2023-04-15T04:13:58.847Z,6.20
2023-04-15T04:16:25.633Z,6.80
2023-04-15T04:18:52.345Z,6.60
2023-04-15T04:21:19.063Z,5.90
2023-04-15T04:23:45.735Z,6.23
2023-04-15T04:26:12.444Z,6.37
2023-04-15T04:28:40.731Z,7.10
2023-04-15T04:31:08.001Z,6.70
2023-04-15T04:33:34.781Z,7.10
2023-04-15T04:36:01.638Z,6.53
2023-04-15T04:38:28.285Z,6.33
2023-04-15T04:40:54.951Z,6.80
2023-04-15T04:43:22.158Z,6.93
2023-04-15T04:45:48.990Z,6.50
2023-04-15T04:48:15.742Z,7.40
2023-04-15T04:50:42.556Z,6.83
2023-04-15T04:53:09.194Z,6.90
2023-04-15T04:55:38.990Z,6.50
2023-04-15T04:58:05.627Z,7.10
2023-04-15T05:00:32.354Z,6.93
2023-04-15T05:03:01.985Z,7.17
2023-04-15T05:05:28.815Z,7.13
2023-04-15T05:07:55.802Z,7.37
2023-04-15T05:10:22.564Z,7.40
2023-04-15T05:12:55.224Z,7.00
2023-04-15T05:15:22.011Z,7.60
2023-04-15T05:17:48.670Z,7.10
2023-04-15T05:20:15.879Z,7.03
2023-04-15T05:22:42.580Z,7.20
2023-04-15T05:25:10.028Z,7.23
2023-04-15T05:27:37.005Z,7.73
2023-04-15T05:30:03.876Z,7.30
2023-04-15T05:32:30.737Z,7.23
2023-04-15T05:34:57.482Z,7.30
2023-04-15T05:37:24.161Z,7.23
2023-04-15T05:39:50.789Z,7.03
2023-04-15T05:42:17.547Z,7.40
2023-04-15T05:44:44.261Z,7.00
2023-04-15T05:47:11.165Z,7.77
2023-04-15T05:49:37.892Z,7.10
2023-04-15T05:52:05.238Z,7.20
2023-04-15T05:54:31.974Z,8.03
2023-04-15T05:56:59.255Z,7.27
2023-04-15T05:59:26.369Z,7.77
2023-04-15T06:01:53.274Z,7.20
2023-04-15T06:04:20.245Z,8.10
2023-04-15T06:06:47.438Z,8.13
2023-04-15T06:09:14.273Z,7.73
2023-04-15T06:11:41.546Z,8.40
2023-04-15T06:14:08.481Z,8.97
2023-04-15T06:16:36.837Z,7.87
2023-04-15T06:19:04.084Z,8.80
2023-04-15T06:21:31.704Z,9.10
2023-04-15T06:24:01.644Z,9.43
2023-04-15T06:26:28.578Z,8.70
2023-04-15T06:28:55.880Z,8.73
2023-04-15T06:31:22.886Z,8.77
2023-04-15T06:33:49.782Z,9.17
2023-04-15T06:36:16.574Z,9.27
2023-04-15T06:38:43.269Z,9.30
2023-04-15T06:41:10.014Z,9.70
2023-04-15T06:43:36.733Z,9.70
2023-04-15T06:46:03.706Z,9.80
2023-04-15T06:48:30.507Z,9.53
2023-04-15T06:50:58.489Z,9.00
2023-04-15T06:53:28.451Z,10.27
2023-04-15T06:55:55.260Z,9.10
2023-04-15T06:58:22.357Z,9.40
2023-04-15T07:00:49.433Z,9.13
2023-04-15T07:03:16.449Z,9.30
2023-04-15T07:05:43.756Z,10.00
2023-04-15T07:08:10.584Z,8.80
2023-04-15T07:10:37.380Z,9.50
2023-04-15T07:13:05.188Z,8.83
2023-04-15T07:15:31.872Z,8.67
2023-04-15T07:17:58.679Z,8.33
2023-04-15T07:20:25.820Z,7.43
2023-04-15T07:22:53.416Z,7.37
2023-04-15T07:25:20.254Z,7.10
2023-04-15T07:27:47.606Z,6.93
2023-04-15T07:30:16.929Z,7.33
2023-04-15T07:32:43.791Z,6.60
2023-04-15T07:35:10.888Z,6.53
2023-04-15T07:37:37.718Z,7.30
2023-04-15T07:40:05.493Z,6.57
2023-04-15T07:42:32.175Z,6.80
2023-04-15T07:44:58.844Z,6.70
2023-04-15T07:47:25.967Z,6.63
2023-04-15T07:49:53.353Z,6.27
2023-04-15T07:52:20.041Z,5.90
2023-04-15T07:54:47.092Z,5.87
2023-04-15T07:57:20.102Z,5.17
2023-04-15T07:59:46.899Z,4.23
2023-04-15T08:02:13.764Z,4.70
2023-04-15T08:04:40.794Z,4.07
2023-04-15T08:07:07.879Z,4.10
2023-04-15T08:09:35.021Z,3.40
2023-04-15T08:12:01.992Z,3.73
2023-04-15T08:14:29.475Z,3.30
2023-04-15T08:16:56.168Z,3.43
2023-04-15T08:19:23.199Z,3.30
2023-04-15T08:21:49.945Z,3.70
2023-04-15T08:24:16.652Z,3.73
2023-04-15T08:26:43.432Z,3.50
2023-04-15T08:29:10.115Z,3.20
2023-04-15T08:31:36.923Z,3.20
2023-04-15T08:34:03.949Z,3.10
2023-04-15T08:36:31.043Z,2.87
2023-04-15T08:38:57.889Z,3.33
2023-04-15T08:41:26.351Z,3.60
2023-04-15T08:44:02.782Z,3.60
2023-04-15T08:46:30.992Z,3.40
2023-04-15T08:48:58.570Z,3.57
2023-04-15T08:51:25.906Z,3.20
2023-04-15T08:53:52.853Z,3.07
2023-04-15T08:56:20.464Z,3.20
2023-04-15T08:58:48.022Z,2.90
2023-04-15T09:01:14.930Z,3.27
2023-04-15T09:03:49.536Z,3.20
2023-04-15T09:06:22.342Z,3.17
2023-04-15T09:08:50.679Z,3.10
2023-04-15T09:11:20.776Z,3.00
2023-04-15T09:13:47.523Z,3.10
2023-04-15T09:16:14.575Z,3.23
2023-04-15T09:18:41.394Z,3.17
2023-04-15T09:21:13.429Z,3.07
2023-04-15T09:23:42.146Z,3.40
2023-04-15T09:26:08.835Z,2.87
2023-04-15T09:28:42.697Z,3.20
2023-04-15T09:31:10.815Z,3.20
2023-04-15T09:33:55.066Z,3.00
2023-04-15T09:36:21.958Z,2.80
2023-04-15T09:38:56.958Z,2.87
2023-04-15T09:41:25.104Z,2.90
2023-04-15T09:43:51.901Z,3.20
2023-04-15T09:46:18.937Z,3.50
2023-04-15T09:48:45.787Z,3.40
2023-04-15T09:51:12.559Z,3.20
2023-04-15T09:53:39.257Z,3.10
2023-04-15T09:56:08.172Z,3.40
2023-04-15T09:58:35.885Z,3.27
2023-04-15T10:01:05.161Z,3.30
2023-04-15T10:03:36.141Z,3.00
2023-04-15T10:06:04.142Z,3.47
2023-04-15T10:08:33.337Z,3.30
2023-04-15T10:11:02.188Z,3.50
2023-04-15T10:13:33.119Z,3.50
2023-04-15T10:16:01.762Z,3.37
2023-04-15T10:18:29.296Z,3.27
2023-04-15T10:20:56.214Z,3.93
2023-04-15T10:23:24.636Z,4.07
2023-04-15T10:25:54.178Z,3.60
2023-04-15T10:28:23.118Z,3.57
2023-04-15T10:30:50.347Z,3.50
2023-04-15T10:33:24.638Z,3.90
2023-04-15T10:35:52.879Z,3.67
2023-04-15T10:38:44.512Z,3.67
2023-04-15T10:41:21.470Z,3.70
2023-04-15T10:43:53.916Z,4.00
2023-04-15T10:46:40.259Z,3.50
2023-04-15T10:49:18.139Z,3.50
2023-04-15T10:51:46.719Z,4.07
2023-04-15T10:54:26.603Z,4.00
2023-04-15T10:57:09.322Z,4.03
2023-04-15T10:59:59.317Z,4.37
2023-04-15T11:02:42.553Z,4.20
2023-04-15T11:05:10.823Z,3.90
2023-04-15T11:07:44.529Z,3.53
2023-04-15T11:10:14.354Z,4.10
2023-04-15T11:12:41.465Z,3.67
2023-04-15T11:15:38.080Z,3.47
2023-04-15T11:18:15.120Z,3.63
2023-04-15T11:20:45.321Z,3.00
2023-04-15T11:23:14.591Z,3.23
2023-04-15T11:25:43.532Z,3.40
2023-04-15T11:28:12.230Z,3.70
2023-04-15T11:30:40.150Z,3.40
2023-04-15T11:33:12.647Z,3.67
2023-04-15T11:35:41.543Z,3.40
2023-04-15T11:38:14.063Z,3.90
2023-04-15T11:40:44.565Z,3.40
2023-04-15T11:43:20.481Z,3.67
2023-04-15T11:45:53.411Z,3.20
2023-04-15T11:48:21.967Z,3.30
2023-04-15T11:50:57.000Z,2.80
2023-04-15T11:53:24.880Z,2.40
2023-04-15T11:55:53.259Z,2.97
2023-04-15T11:58:24.537Z,2.97
2023-04-15T12:00:54.257Z,2.70
2023-04-15T12:03:25.307Z,2.97
2023-04-15T12:06:07.765Z,2.90
2023-04-15T12:08:55.988Z,2.70
2023-04-15T12:11:34.999Z,4.07
2023-04-15T12:14:12.885Z,4.60
2023-04-15T12:16:48.789Z,4.43
2023-04-15T12:19:35.285Z,5.07
2023-04-15T12:22:04.402Z,4.20
2023-04-15T12:24:37.909Z,3.57
2023-04-15T12:27:05.879Z,3.63
2023-04-15T12:29:33.218Z,3.70
2023-04-15T12:32:07.891Z,3.20
2023-04-15T12:34:39.215Z,3.90
2023-04-15T12:37:08.043Z,3.33
2023-04-15T12:39:36.763Z,3.50
2023-04-15T12:42:05.454Z,3.50
2023-04-15T12:44:33.393Z,3.27
2023-04-15T12:47:00.567Z,3.17
2023-04-15T12:49:27.863Z,3.17
2023-04-15T12:51:56.920Z,2.73
2023-04-15T12:54:24.122Z,3.07
2023-04-15T12:56:51.363Z,2.67
2023-04-15T12:59:18.900Z,2.70
2023-04-15T13:01:46.794Z,3.10
2023-04-15T13:04:13.666Z,3.47
2023-04-15T13:06:40.663Z,3.20
2023-04-15T13:09:07.555Z,3.10
2023-04-15T13:11:34.419Z,3.50
2023-04-15T13:14:02.455Z,3.87
2023-04-15T13:16:29.842Z,4.63
2023-04-15T13:18:56.643Z,3.43
2023-04-15T13:21:23.450Z,3.07
2023-04-15T13:23:51.434Z,2.93
2023-04-15T13:26:18.610Z,2.90
2023-04-15T13:28:45.977Z,3.10
2023-04-15T13:31:13.046Z,3.00
2023-04-15T13:33:39.723Z,3.00
2023-04-15T13:36:07.007Z,3.00
2023-04-15T13:38:33.807Z,2.60
2023-04-15T13:41:00.521Z,2.87
2023-04-15T13:43:27.237Z,2.70
2023-04-15T13:45:54.361Z,3.10
2023-04-15T13:48:21.258Z,2.80
2023-04-15T13:50:48.150Z,2.50
2023-04-15T13:53:17.349Z,2.70
2023-04-15T13:55:44.160Z,2.40
2023-04-15T13:58:11.606Z,2.90
2023-04-15T14:00:38.370Z,3.20
2023-04-15T14:03:05.544Z,3.03
2023-04-15T14:05:33.136Z,2.80
2023-04-15T14:08:00.648Z,3.07
2023-04-15T14:10:27.389Z,2.70
2023-04-15T14:12:54.248Z,2.50
2023-04-15T14:15:27.037Z,3.00
2023-04-15T14:17:53.794Z,2.60
2023-04-15T14:20:20.496Z,2.83
2023-04-15T14:22:47.197Z,2.50
2023-04-15T14:25:20.143Z,2.87
2023-04-15T14:27:57.414Z,2.80
2023-04-15T14:30:24.148Z,2.37
2023-04-15T14:32:50.859Z,2.73
2023-04-15T14:35:20.011Z,2.57
2023-04-15T14:37:49.573Z,2.30
2023-04-15T14:40:16.375Z,2.03
2023-04-15T14:42:43.205Z,2.53
2023-04-15T14:45:10.809Z,3.57
2023-04-15T14:47:37.557Z,3.37
2023-04-15T14:50:06.426Z,2.60
2023-04-15T14:52:38.765Z,2.53
2023-04-15T14:55:07.529Z,3.03
2023-04-15T14:57:34.385Z,2.87
2023-04-15T15:00:01.170Z,2.80
2023-04-15T15:02:38.384Z,2.47
2023-04-15T15:05:07.039Z,2.80
2023-04-15T15:07:35.404Z,2.80
2023-04-15T15:10:03.600Z,2.33
2023-04-15T15:12:35.452Z,2.43
2023-04-15T15:15:09.236Z,2.27
2023-04-15T15:17:39.409Z,2.37
2023-04-15T15:20:06.799Z,2.00
2023-04-15T15:22:33.514Z,2.33
2023-04-15T15:25:02.274Z,2.53
2023-04-15T15:27:29.152Z,2.10
2023-04-15T15:29:56.795Z,2.40
2023-04-15T15:32:23.478Z,2.40
2023-04-15T15:34:50.243Z,2.20
2023-04-15T15:37:16.964Z,2.00
2023-04-15T15:39:43.657Z,2.00
2023-04-15T15:42:10.337Z,2.40
2023-04-15T15:44:38.629Z,2.20
2023-04-15T15:47:09.703Z,1.90
2023-04-15T15:49:36.385Z,2.40
2023-04-15T15:52:03.138Z,2.50
2023-04-15T15:54:30.030Z,2.30
2023-04-15T15:56:57.705Z,2.10
2023-04-15T15:59:25.731Z,2.33
2023-04-15T16:01:53.023Z,1.90
2023-04-15T16:04:20.038Z,2.10
2023-04-15T16:06:47.528Z,2.20
2023-04-15T16:09:14.357Z,2.00
2023-04-15T16:11:41.788Z,2.20
2023-04-15T16:14:08.458Z,2.33
2023-04-15T16:16:35.392Z,2.30
2023-04-15T16:19:02.265Z,2.20
2023-04-15T16:21:29.138Z,2.30
2023-04-15T16:23:56.043Z,2.20
2023-04-15T16:26:23.589Z,2.30
2023-04-15T16:28:50.271Z,2.00
2023-04-15T16:31:16.932Z,2.10
2023-04-15T16:33:43.706Z,2.33
2023-04-15T16:36:10.653Z,2.37
2023-04-15T16:38:45.477Z,2.00
2023-04-15T16:41:12.173Z,2.33
2023-04-15T16:43:38.921Z,2.40
2023-04-15T16:46:05.731Z,2.30
2023-04-15T16:48:32.438Z,2.33
2023-04-15T16:50:59.223Z,2.77
2023-04-15T16:53:26.112Z,3.80
2023-04-15T16:55:52.835Z,3.03
2023-04-15T16:58:19.554Z,3.03
2023-04-15T17:00:46.338Z,2.80
2023-04-15T17:03:13.203Z,2.43
2023-04-15T17:05:40.301Z,2.47
2023-04-15T17:08:07.049Z,3.07
2023-04-15T17:10:33.837Z,2.87
2023-04-15T17:13:01.052Z,2.47
2023-04-15T17:15:28.052Z,2.80
2023-04-15T17:17:54.916Z,2.60
2023-04-15T17:20:21.982Z,2.73
2023-04-15T17:22:48.969Z,2.90
2023-04-15T17:25:16.201Z,2.77
2023-04-15T17:27:43.017Z,3.00
2023-04-15T17:30:10.322Z,2.60
2023-04-15T17:32:37.469Z,2.43
2023-04-15T17:35:06.254Z,2.97
2023-04-15T17:37:33.992Z,2.87
2023-04-15T17:40:00.861Z,2.50
2023-04-15T17:42:27.609Z,2.40
2023-04-15T17:44:54.353Z,2.40
2023-04-15T17:47:21.724Z,2.20
2023-04-15T17:49:48.419Z,2.70
2023-04-15T17:52:15.373Z,2.50
2023-04-15T17:54:42.142Z,3.03
2023-04-15T17:57:09.873Z,2.67
2023-04-15T17:59:36.714Z,2.53
2023-04-15T18:02:03.574Z,2.30
2023-04-15T18:04:30.714Z,2.33
2023-04-15T18:06:57.545Z,1.77
2023-04-15T18:09:24.502Z,2.23
2023-04-15T18:11:51.455Z,2.43
2023-04-15T18:14:32.938Z,2.57
2023-04-15T18:17:01.199Z,2.37
2023-04-15T18:19:27.975Z,2.47
2023-04-15T18:21:54.713Z,2.20
2023-04-15T18:24:22.159Z,2.47
2023-04-15T18:26:49.260Z,2.73
2023-04-15T18:29:16.375Z,2.67
2023-04-15T18:31:43.376Z,2.70
2023-04-15T18:34:10.356Z,2.17
2023-04-15T18:36:37.153Z,2.03
2023-04-15T18:39:04.786Z,2.70
2023-04-15T18:41:31.913Z,2.60
2023-04-15T18:43:58.622Z,2.40
2023-04-15T18:46:25.502Z,2.53
2023-04-15T18:48:52.207Z,2.40
2023-04-15T18:51:18.966Z,2.43
2023-04-15T18:53:45.820Z,2.60
2023-04-15T18:56:12.573Z,2.80
2023-04-15T18:59:26.088Z,2.80
2023-04-15T19:01:26.568Z,2.53
2023-04-15T19:03:53.386Z,2.47
2023-04-15T19:06:20.206Z,3.13
2023-04-15T19:08:46.880Z,3.60
2023-04-15T19:11:14.076Z,3.50
2023-04-15T19:13:40.963Z,2.90
2023-04-15T19:16:07.768Z,2.70
2023-04-15T19:18:34.801Z,2.93
2023-04-15T19:21:01.548Z,2.87
2023-04-15T19:23:28.248Z,2.70
2023-04-15T19:25:55.052Z,2.83
2023-04-15T19:28:21.870Z,2.80
2023-04-15T19:30:48.717Z,3.07
2023-04-15T19:33:15.557Z,2.70
2023-04-15T19:35:43.926Z,2.67
2023-04-15T19:38:10.708Z,2.80
2023-04-15T19:40:37.673Z,2.60
2023-04-15T19:43:04.372Z,3.30
2023-04-15T19:45:32.034Z,2.93
2023-04-15T19:47:58.914Z,2.60
2023-04-15T19:50:28.014Z,3.70
2023-04-15T19:52:54.717Z,3.47
2023-04-15T19:55:21.553Z,2.70
2023-04-15T19:57:48.462Z,3.80
2023-04-15T20:00:16.965Z,3.80
2023-04-15T20:02:43.989Z,2.70
2023-04-15T20:05:10.967Z,2.90
2023-04-15T20:07:37.701Z,3.10
2023-04-15T20:10:09.641Z,3.07
2023-04-15T20:12:50.299Z,3.37
2023-04-15T20:15:20.871Z,2.70
2023-04-15T20:17:47.596Z,3.00
2023-04-15T20:20:14.434Z,3.00
2023-04-15T20:22:41.660Z,3.10
2023-04-15T20:25:08.792Z,3.40
2023-04-15T20:27:35.666Z,3.00
2023-04-15T20:30:05.122Z,2.83
2023-04-15T20:32:36.234Z,3.37
2023-04-15T20:35:04.454Z,3.80
2023-04-15T20:37:33.812Z,3.70
2023-04-15T20:40:00.977Z,3.40
2023-04-15T20:42:27.718Z,4.23
2023-04-15T20:44:55.031Z,4.23
2023-04-15T20:47:21.827Z,4.77
2023-04-15T20:49:48.691Z,5.07
2023-04-15T20:52:15.598Z,4.70
2023-04-15T20:54:42.342Z,4.33
2023-04-15T20:57:09.440Z,4.10
2023-04-15T20:59:36.322Z,4.63
2023-04-15T21:02:03.434Z,4.10
2023-04-15T21:04:30.279Z,4.37
2023-04-15T21:06:57.048Z,4.40
2023-04-15T21:09:25.153Z,3.77
2023-04-15T21:14:21.473Z,4.77
2023-04-15T21:16:48.301Z,4.60
2023-04-15T21:19:15.129Z,5.10
2023-04-15T21:21:41.839Z,4.33
2023-04-15T21:24:08.606Z,4.10
2023-04-15T21:26:36.424Z,4.93
2023-04-15T21:29:03.794Z,5.63
2023-04-15T21:31:31.235Z,4.97
2023-04-15T21:33:57.974Z,5.10
2023-04-15T21:36:24.853Z,5.53
2023-04-15T21:38:52.138Z,5.43
2023-04-15T21:41:19.543Z,5.50
2023-04-15T21:43:46.659Z,6.30
2023-04-15T21:46:23.503Z,7.17
2023-04-15T21:48:53.420Z,6.37
2023-04-15T21:51:20.345Z,5.53
2023-04-15T21:53:47.281Z,6.40
2023-04-15T21:56:14.651Z,6.67
2023-04-15T21:58:41.503Z,5.93
2023-04-15T22:01:08.788Z,6.40
2023-04-15T22:03:35.945Z,6.40
2023-04-15T22:06:03.542Z,6.20
2023-04-15T22:08:38.274Z,5.87
2023-04-15T22:11:09.399Z,5.43
2023-04-15T22:13:36.695Z,5.83
2023-04-15T22:16:03.890Z,6.40
2023-04-15T22:18:30.804Z,6.80
2023-04-15T22:20:57.586Z,6.50
2023-04-15T22:23:24.474Z,6.97
2023-04-15T22:25:51.599Z,8.03
2023-04-15T22:28:18.651Z,8.90
2023-04-15T22:30:45.755Z,8.13
2023-04-15T22:33:12.487Z,9.50
2023-04-15T22:35:39.388Z,9.43
2023-04-15T22:38:06.504Z,7.33
2023-04-15T22:40:33.431Z,7.87
2023-04-15T22:43:00.167Z,7.10
2023-04-15T22:45:26.857Z,8.27
2023-04-15T22:47:53.685Z,8.20
2023-04-15T22:50:20.423Z,7.37
2023-04-15T22:52:48.389Z,6.30
2023-04-15T22:55:15.323Z,6.67
2023-04-15T22:57:42.075Z,7.80
2023-04-15T23:00:09.477Z,8.20
2023-04-15T23:02:36.326Z,8.30
2023-04-15T23:05:03.191Z,7.57
2023-04-15T23:07:37.904Z,8.33
2023-04-15T23:10:04.893Z,8.50
2023-04-15T23:12:31.846Z,8.93
2023-04-15T23:14:58.518Z,9.17
2023-04-15T23:17:25.311Z,8.27
2023-04-15T23:19:52.150Z,7.27
2023-04-15T23:22:18.998Z,6.30
2023-04-15T23:24:46.026Z,7.00
2023-04-15T23:27:13.139Z,6.70
2023-04-15T23:29:39.839Z,7.50
2023-04-15T23:32:06.928Z,8.60
2023-04-15T23:34:33.655Z,8.17
2023-04-15T23:37:00.371Z,8.03
2023-04-15T23:39:27.136Z,7.77
2023-04-15T23:41:53.959Z,9.03
2023-04-15T23:44:20.704Z,9.20
2023-04-15T23:46:47.618Z,9.07
2023-04-15T23:49:14.514Z,8.80
2023-04-15T23:51:41.472Z,8.83
2023-04-15T23:54:08.188Z,9.60
2023-04-15T23:56:34.875Z,8.80
2023-04-15T23:59:01.579Z,8.60
